Time;durP1;ratioP1;P1;durP2;ratioP2;P2;SDS_P1;SDS_P2;PMS_P1;PMS_P2;Temp;Humidity;BMP_temperature;BMP_pressure;BME280_temperature;BME280_humidity;BME280_pressure;Samples;Min_cycle;Max_cycle;Signal;HPM_P1;HPM_P2
2023/03/31 05:00:44;;;;;;;6.37;3.50;;;11.50;97.20;;;;;;1707760;28;20228;-66
2023/03/31 05:01:35;;;;;;;6.90;3.58;;;11.60;97.20;;;;;;1707355;28;20293;-66
2023/03/31 05:02:26;;;;;;;8.47;3.40;;;11.60;97.20;;;;;;1708855;28;20202;-67
2023/03/31 05:03:17;;;;;;;8.55;3.45;;;11.60;97.20;;;;;;1706296;28;20473;-67
2023/03/31 05:04:09;;;;;;;4.80;3.07;;;11.60;97.20;;;;;;1708050;29;20195;-66
2023/03/31 05:05:00;;;;;;;7.55;3.70;;;11.60;97.20;;;;;;1707367;29;20264;-67
2023/03/31 05:05:51;;;;;;;6.10;3.70;;;11.60;97.20;;;;;;1706766;28;20222;-67
2023/03/31 05:06:42;;;;;;;10.10;3.85;;;11.60;97.20;;;;;;1707632;28;20213;-67
2023/03/31 05:07:34;;;;;;;6.30;3.57;;;11.60;97.20;;;;;;1707757;28;20208;-67
2023/03/31 05:08:25;;;;;;;4.78;3.47;;;11.60;97.20;;;;;;1707584;28;20608;-67
2023/03/31 05:09:17;;;;;;;7.05;3.40;;;11.60;97.20;;;;;;1707681;28;20202;-66
2023/03/31 05:10:09;;;;;;;5.78;3.70;;;11.60;97.20;;;;;;1705958;28;20206;-66
2023/03/31 05:11:02;;;;;;;7.15;4.20;;;11.60;97.20;;;;;;1706482;28;20582;-67
2023/03/31 05:11:53;;;;;;;7.57;3.90;;;11.60;97.20;;;;;;1707686;28;20210;-67
2023/03/31 05:12:45;;;;;;;5.97;3.90;;;11.60;97.20;;;;;;1710527;28;20206;-67
2023/03/31 05:13:35;;;;;;;7.80;4.30;;;11.60;97.20;;;;;;1710681;28;20207;-68
2023/03/31 05:14:27;;;;;;;4.10;3.27;;;11.60;97.20;;;;;;1710669;28;20200;-66
2023/03/31 05:15:18;;;;;;;4.15;3.75;;;11.60;97.20;;;;;;1705693;29;20221;-67
2023/03/31 05:16:13;;;;;;;7.07;3.90;;;11.60;97.20;;;;;;1705733;29;20205;-65
2023/03/31 05:17:04;;;;;;;5.40;3.70;;;11.60;97.20;;;;;;1710588;28;20205;-66
2023/03/31 05:17:58;;;;;;;5.57;3.67;;;11.60;97.20;;;;;;1710494;28;20253;-66
2023/03/31 05:18:48;;;;;;;6.22;3.75;;;11.60;97.20;;;;;;1710568;28;20229;-68
2023/03/31 05:19:40;;;;;;;7.50;3.87;;;11.60;97.20;;;;;;1710740;28;20197;-67
2023/03/31 05:20:31;;;;;;;4.88;3.65;;;11.60;97.20;;;;;;1705528;29;20229;-66
2023/03/31 05:21:25;;;;;;;10.80;4.27;;;11.60;97.20;;;;;;1705623;29;20293;-66
2023/03/31 05:22:19;;;;;;;7.28;3.75;;;11.60;97.20;;;;;;1706730;28;20217;-66
2023/03/31 05:23:11;;;;;;;9.25;4.30;;;11.60;97.20;;;;;;1708589;28;20270;-67
2023/03/31 05:24:02;;;;;;;8.10;4.28;;;11.60;97.20;;;;;;1705337;28;20732;-69
2023/03/31 05:24:53;;;;;;;5.03;3.80;;;11.60;97.20;;;;;;1710084;28;20598;-66
2023/03/31 05:25:44;;;;;;;6.95;4.05;;;11.60;97.20;;;;;;1713897;28;20453;-66
2023/03/31 05:26:36;;;;;;;7.73;4.83;;;11.50;97.20;;;;;;1714727;28;20295;-66
2023/03/31 05:27:26;;;;;;;7.55;4.75;;;11.60;97.20;;;;;;1714814;28;20672;-65
2023/03/31 05:28:18;;;;;;;5.73;3.40;;;11.60;97.20;;;;;;1714742;28;20536;-66
2023/03/31 05:29:09;;;;;;;7.22;4.53;;;11.60;97.20;;;;;;1714716;28;20696;-66
2023/03/31 05:30:01;;;;;;;6.23;3.70;;;11.60;97.20;;;;;;1714615;28;20556;-66
2023/03/31 05:30:52;;;;;;;7.72;4.15;;;11.60;97.20;;;;;;1714685;28;20237;-68
2023/03/31 05:31:45;;;;;;;6.50;4.50;;;11.60;97.20;;;;;;1714775;28;20208;-71
2023/03/31 05:32:36;;;;;;;9.00;4.00;;;11.60;97.20;;;;;;1714622;28;20449;-67
2023/03/31 05:33:28;;;;;;;4.57;3.90;;;11.60;97.20;;;;;;1714711;28;20202;-66
2023/03/31 05:34:19;;;;;;;6.07;4.30;;;11.60;97.20;;;;;;1714375;28;20210;-66
2023/03/31 05:35:11;;;;;;;6.95;5.07;;;11.60;97.20;;;;;;1714624;28;20212;-69
2023/03/31 05:36:02;;;;;;;7.15;3.85;;;11.70;97.20;;;;;;1714707;28;20212;-67
2023/03/31 05:36:54;;;;;;;6.93;4.13;;;11.60;97.20;;;;;;1714692;28;20204;-65
2023/03/31 05:37:44;;;;;;;7.43;3.80;;;11.60;97.20;;;;;;1712000;28;20453;-65
2023/03/31 05:38:36;;;;;;;7.33;3.60;;;11.60;97.20;;;;;;1707473;28;20913;-65
2023/03/31 05:39:31;;;;;;;6.95;3.78;;;11.60;97.20;;;;;;1707212;28;20213;-65
2023/03/31 05:40:23;;;;;;;6.35;3.90;;;11.60;97.20;;;;;;1709772;28;20203;-68
2023/03/31 05:41:15;;;;;;;8.43;4.72;;;11.60;97.20;;;;;;1709898;28;20237;-66
2023/03/31 05:42:07;;;;;;;6.45;4.00;;;11.70;97.20;;;;;;1707336;28;20657;-67
2023/03/31 05:42:58;;;;;;;5.25;3.60;;;11.70;97.20;;;;;;1706547;28;20210;-65
2023/03/31 05:43:49;;;;;;;6.63;4.47;;;11.70;97.20;;;;;;1707132;28;20672;-65
2023/03/31 05:44:40;;;;;;;5.60;4.13;;;11.70;97.20;;;;;;1707178;28;20245;-67
2023/03/31 05:45:32;;;;;;;9.80;4.10;;;11.70;97.20;;;;;;1707310;28;20217;-66
2023/03/31 05:46:23;;;;;;;7.18;4.25;;;11.70;97.20;;;;;;1707360;28;20354;-65
2023/03/31 05:47:16;;;;;;;5.63;4.03;;;11.70;97.20;;;;;;1709012;28;20197;-65
2023/03/31 05:48:06;;;;;;;7.47;4.60;;;11.70;97.20;;;;;;1708610;28;20446;-67
2023/03/31 05:48:58;;;;;;;4.80;4.03;;;11.70;97.20;;;;;;1707355;28;20198;-65
2023/03/31 05:49:49;;;;;;;8.13;4.50;;;11.70;97.20;;;;;;1705574;28;20309;-65
2023/03/31 05:50:41;;;;;;;8.75;4.18;;;11.80;97.20;;;;;;1705531;29;20219;-65
2023/03/31 05:51:32;;;;;;;8.07;4.28;;;11.80;97.20;;;;;;1705687;29;20885;-66
2023/03/31 05:52:24;;;;;;;6.80;3.87;;;11.80;97.20;;;;;;1707241;28;20269;-66
2023/03/31 05:53:15;;;;;;;7.97;4.15;;;11.80;97.20;;;;;;1707345;28;20234;-66
2023/03/31 05:54:07;;;;;;;7.40;3.80;;;11.80;97.20;;;;;;1707124;28;20209;-66
2023/03/31 05:54:57;;;;;;;9.27;4.00;;;11.80;97.20;;;;;;1707353;28;20511;-65
2023/03/31 05:55:49;;;;;;;9.30;4.50;;;11.80;97.20;;;;;;1707371;28;20525;-65
2023/03/31 05:56:40;;;;;;;7.60;4.75;;;11.80;97.20;;;;;;1705571;28;20268;-66
2023/03/31 05:57:31;;;;;;;8.57;4.10;;;11.80;97.20;;;;;;1706338;29;20206;-66
2023/03/31 05:58:22;;;;;;;10.00;4.30;;;11.80;97.20;;;;;;1710337;28;20221;-67
2023/03/31 05:59:15;;;;;;;6.23;4.43;;;11.80;97.20;;;;;;1710580;28;20277;-68
2023/03/31 06:00:09;;;;;;;8.57;4.43;;;11.80;97.20;;;;;;1705530;28;20238;-65
2023/03/31 06:01:04;;;;;;;7.45;4.65;;;11.80;97.20;;;;;;1708917;28;20194;-65
2023/03/31 06:01:55;;;;;;;6.97;4.78;;;11.90;97.20;;;;;;1706594;28;20194;-66
2023/03/31 06:02:48;;;;;;;5.10;4.10;;;11.80;97.20;;;;;;1705819;28;20712;-68
2023/03/31 06:03:40;;;;;;;5.72;4.43;;;11.90;97.20;;;;;;1705320;28;20211;-66
2023/03/31 06:04:32;;;;;;;7.85;4.60;;;11.80;97.20;;;;;;1706251;29;20254;-66
2023/03/31 06:05:25;;;;;;;6.05;4.28;;;11.80;97.20;;;;;;1705657;29;20241;-66
2023/03/31 06:06:17;;;;;;;7.63;4.35;;;11.80;97.20;;;;;;1708314;28;20198;-66
2023/03/31 06:07:09;;;;;;;7.28;4.20;;;11.80;97.20;;;;;;1707259;28;20221;-67
2023/03/31 06:08:00;;;;;;;9.93;5.80;;;11.80;97.20;;;;;;1707175;28;20253;-66
2023/03/31 06:08:52;;;;;;;7.50;4.70;;;11.80;97.20;;;;;;1707217;28;20669;-66
2023/03/31 06:09:44;;;;;;;6.00;4.75;;;11.80;97.20;;;;;;1705527;28;20209;-65
2023/03/31 06:10:38;;;;;;;6.22;4.10;;;11.90;97.20;;;;;;1706954;28;20656;-66
2023/03/31 06:11:29;;;;;;;6.32;4.57;;;11.90;97.20;;;;;;1707251;28;20948;-66
2023/03/31 06:12:21;;;;;;;7.27;4.67;;;11.90;97.20;;;;;;1707281;28;20571;-65
2023/03/31 06:13:11;;;;;;;6.20;4.20;;;11.90;97.20;;;;;;1707749;28;20442;-66
2023/03/31 06:14:03;;;;;;;9.40;4.90;;;11.90;97.20;;;;;;1707602;28;20217;-66
2023/03/31 06:14:54;;;;;;;8.05;5.45;;;11.90;97.20;;;;;;1707738;28;20700;-66
2023/03/31 06:15:53;;;;;;;7.53;4.57;;;11.90;97.20;;;;;;1707743;28;20657;-65
2023/03/31 06:16:46;;;;;;;7.30;5.10;;;11.90;97.20;;;;;;1707882;28;20214;-65
2023/03/31 06:17:38;;;;;;;7.88;4.65;;;11.90;97.20;;;;;;1707762;28;20209;-65
2023/03/31 06:18:33;;;;;;;7.35;4.70;;;11.90;97.20;;;;;;1707825;28;20226;-65
2023/03/31 06:19:25;;;;;;;6.50;4.75;;;11.90;97.20;;;;;;1707692;28;20203;-66
2023/03/31 06:20:16;;;;;;;6.88;4.63;;;11.90;97.20;;;;;;1707605;28;20688;-65
2023/03/31 06:21:11;;;;;;;6.28;4.43;;;11.90;97.20;;;;;;1708997;28;20718;-67
2023/03/31 06:22:01;;;;;;;8.48;5.00;;;12.00;97.20;;;;;;1705394;28;20203;-66
2023/03/31 06:22:53;;;;;;;8.50;4.90;;;12.00;97.20;;;;;;1705248;29;20452;-65
2023/03/31 06:23:44;;;;;;;10.10;5.00;;;12.00;97.20;;;;;;1705163;29;20241;-65
2023/03/31 06:24:36;;;;;;;7.03;4.32;;;12.00;97.20;;;;;;1711767;28;20193;-65
2023/03/31 06:25:27;;;;;;;9.45;4.25;;;12.00;97.20;;;;;;1707047;28;20595;-65
2023/03/31 06:26:19;;;;;;;9.27;4.87;;;12.00;97.20;;;;;;1707069;28;20206;-65
2023/03/31 06:27:10;;;;;;;5.75;4.20;;;12.00;97.20;;;;;;1705285;28;20237;-67
2023/03/31 06:28:01;;;;;;;7.60;4.27;;;12.00;97.20;;;;;;1705408;29;20210;-65
2023/03/31 06:28:53;;;;;;;7.80;5.22;;;12.00;97.20;;;;;;1705603;29;20296;-65
2023/03/31 06:29:44;;;;;;;9.43;4.45;;;12.00;97.20;;;;;;1710386;28;20722;-65
2023/03/31 06:30:35;;;;;;;5.88;4.28;;;12.00;97.20;;;;;;1710030;28;20262;-65
2023/03/31 06:31:27;;;;;;;6.00;4.30;;;12.00;97.20;;;;;;1705247;29;20210;-66
2023/03/31 06:32:18;;;;;;;7.00;4.10;;;12.00;97.20;;;;;;1705160;29;20297;-65
2023/03/31 06:33:10;;;;;;;9.37;4.37;;;12.00;97.20;;;;;;1705255;29;20197;-65
2023/03/31 06:34:02;;;;;;;8.25;4.72;;;12.00;97.20;;;;;;1709844;28;20210;-66
2023/03/31 06:34:53;;;;;;;6.85;5.07;;;12.00;97.20;;;;;;1710140;28;20222;-67
2023/03/31 06:35:44;;;;;;;8.18;4.22;;;12.00;97.20;;;;;;1705262;28;20233;-65
2023/03/31 06:36:36;;;;;;;5.87;4.77;;;12.00;97.20;;;;;;1708138;28;20194;-66
2023/03/31 06:37:27;;;;;;;7.65;4.70;;;11.90;97.20;;;;;;1705343;29;20207;-65
2023/03/31 06:38:18;;;;;;;10.13;4.93;;;11.90;97.20;;;;;;1705586;28;20203;-65
2023/03/31 06:39:09;;;;;;;6.25;3.95;;;11.80;97.20;;;;;;1707113;28;20225;-65
2023/03/31 06:40:01;;;;;;;6.10;4.60;;;11.80;97.20;;;;;;1706961;28;20656;-65
2023/03/31 06:40:52;;;;;;;6.80;4.28;;;11.80;97.20;;;;;;1709955;28;20707;-65
2023/03/31 06:41:44;;;;;;;8.70;4.65;;;11.80;97.20;;;;;;1706876;28;20238;-65
2023/03/31 06:42:35;;;;;;;6.20;4.20;;;11.80;97.20;;;;;;1705199;29;20269;-65
2023/03/31 06:43:27;;;;;;;6.50;4.33;;;11.80;97.20;;;;;;1705957;28;20209;-66
2023/03/31 06:44:21;;;;;;;6.20;4.40;;;11.80;97.20;;;;;;1704964;28;20707;-64
2023/03/31 06:45:13;;;;;;;6.30;4.47;;;11.70;97.20;;;;;;1706925;28;20229;-67
2023/03/31 06:46:04;;;;;;;7.50;5.05;;;11.70;97.20;;;;;;1707056;28;20202;-65
2023/03/31 06:46:56;;;;;;;7.78;4.93;;;11.70;97.20;;;;;;1706986;28;20222;-66
2023/03/31 06:47:47;;;;;;;5.57;4.40;;;11.70;97.20;;;;;;1707036;28;20575;-65
2023/03/31 06:48:40;;;;;;;6.60;4.10;;;11.70;97.20;;;;;;1707062;28;20195;-65
2023/03/31 06:49:32;;;;;;;8.52;4.80;;;11.60;97.20;;;;;;1707094;28;20261;-66
2023/03/31 06:50:23;;;;;;;7.95;4.90;;;11.70;97.20;;;;;;1705241;28;20257;-66
2023/03/31 06:51:14;;;;;;;8.25;4.57;;;11.60;97.20;;;;;;1706853;28;20235;-65
2023/03/31 06:52:06;;;;;;;6.20;4.80;;;11.60;97.20;;;;;;1707005;28;20205;-65
2023/03/31 06:52:57;;;;;;;9.13;4.90;;;11.70;97.20;;;;;;1708155;28;20450;-65
2023/03/31 06:53:49;;;;;;;8.20;4.85;;;11.70;97.20;;;;;;1705259;29;20195;-65
2023/03/31 06:54:41;;;;;;;7.22;5.00;;;11.70;97.20;;;;;;1706631;28;20203;-65
2023/03/31 06:55:32;;;;;;;7.47;5.00;;;11.60;97.20;;;;;;1706787;28;21708;-65
2023/03/31 06:56:23;;;;;;;6.30;4.68;;;11.60;97.20;;;;;;1707069;28;20202;-65
2023/03/31 06:57:15;;;;;;;7.80;5.13;;;11.60;97.20;;;;;;1705165;28;20222;-65
2023/03/31 06:58:06;;;;;;;6.18;4.90;;;11.60;97.20;;;;;;1706713;28;20206;-65
2023/03/31 06:58:57;;;;;;;6.00;4.17;;;11.50;97.20;;;;;;1710062;28;20708;-66
2023/03/31 06:59:48;;;;;;;9.82;5.00;;;11.50;97.20;;;;;;1706894;28;20206;-65
2023/03/31 07:00:40;;;;;;;5.93;5.30;;;11.50;97.20;;;;;;1708152;28;20211;-65
2023/03/31 07:01:31;;;;;;;6.55;4.65;;;11.50;97.20;;;;;;1708088;28;20199;-65
2023/03/31 07:02:23;;;;;;;7.80;5.37;;;11.50;97.20;;;;;;1706969;28;20202;-66
2023/03/31 07:03:17;;;;;;;9.82;5.88;;;11.50;97.20;;;;;;1704891;29;20202;-66
2023/03/31 07:04:09;;;;;;;6.00;4.95;;;11.40;97.20;;;;;;1707006;28;20285;-65
2023/03/31 07:05:01;;;;;;;9.18;5.97;;;11.40;97.20;;;;;;1706867;28;20207;-65
2023/03/31 07:05:54;;;;;;;8.20;5.72;;;11.40;97.20;;;;;;1706541;28;20218;-65
2023/03/31 07:06:45;;;;;;;6.20;5.00;;;11.40;97.20;;;;;;1706915;28;20649;-65
2023/03/31 07:07:37;;;;;;;7.40;5.40;;;11.30;97.20;;;;;;1706823;28;20195;-65
2023/03/31 07:08:27;;;;;;;10.70;6.82;;;11.30;97.20;;;;;;1706826;28;20237;-65
2023/03/31 07:09:22;;;;;;;6.17;5.47;;;11.30;97.20;;;;;;1705244;28;20213;-65
2023/03/31 07:10:12;;;;;;;9.52;5.18;;;11.30;97.20;;;;;;1706025;28;20195;-65
2023/03/31 07:11:04;;;;;;;8.63;4.67;;;11.30;97.20;;;;;;1706827;28;20197;-66
2023/03/31 07:11:55;;;;;;;6.18;4.85;;;11.20;97.20;;;;;;1704854;28;20430;-65
2023/03/31 07:12:46;;;;;;;9.53;4.97;;;11.20;97.20;;;;;;1705992;29;20619;-65
2023/03/31 07:13:37;;;;;;;6.45;4.60;;;11.20;97.20;;;;;;1707400;29;20237;-65
2023/03/31 07:14:29;;;;;;;6.90;4.97;;;11.20;97.20;;;;;;1707184;28;20206;-65
2023/03/31 07:15:20;;;;;;;6.93;4.63;;;11.20;97.20;;;;;;1707257;29;20265;-66
2023/03/31 07:16:13;;;;;;;4.35;3.90;;;11.20;97.20;;;;;;1707379;29;20605;-66
2023/03/31 07:17:04;;;;;;;5.57;3.92;;;11.20;97.20;;;;;;1707438;28;20573;-65
2023/03/31 07:18:01;;;;;;;5.53;4.00;;;11.20;97.20;;;;;;1707410;29;20277;-65
2023/03/31 07:18:53;;;;;;;6.82;4.70;;;11.20;97.20;;;;;;1707355;29;20480;-65
2023/03/31 07:19:46;;;;;;;8.38;3.95;;;11.20;97.20;;;;;;1707379;29;20202;-65
2023/03/31 07:20:39;;;;;;;6.03;4.38;;;11.20;97.20;;;;;;1707292;28;20626;-66
2023/03/31 07:21:30;;;;;;;4.32;3.92;;;11.20;97.20;;;;;;1707389;29;20210;-66
2023/03/31 07:22:21;;;;;;;4.47;3.63;;;11.20;97.20;;;;;;1707358;29;20236;-65
2023/03/31 07:23:13;;;;;;;5.67;3.90;;;11.30;97.20;;;;;;1707388;28;20656;-65
2023/03/31 07:24:04;;;;;;;5.15;3.20;;;11.30;97.20;;;;;;1707073;29;20207;-66
2023/03/31 07:24:56;;;;;;;4.78;3.58;;;11.30;97.20;;;;;;1707270;29;20254;-65
2023/03/31 07:25:46;;;;;;;5.75;3.50;;;11.30;97.20;;;;;;1707249;29;20704;-65
2023/03/31 07:26:38;;;;;;;6.00;3.60;;;11.30;97.20;;;;;;1707277;29;20551;-65
2023/03/31 07:27:29;;;;;;;4.28;2.72;;;11.30;97.20;;;;;;1705719;29;20999;-65
2023/03/31 07:28:20;;;;;;;3.97;2.47;;;11.30;97.20;;;;;;1706679;28;20676;-67
2023/03/31 07:29:11;;;;;;;3.63;2.53;;;11.30;97.20;;;;;;1706757;28;20223;-65
2023/03/31 07:30:04;;;;;;;4.27;2.80;;;11.30;97.20;;;;;;1706649;28;20201;-66
2023/03/31 07:30:55;;;;;;;3.83;3.03;;;11.30;97.20;;;;;;1706596;28;20258;-64
2023/03/31 07:31:47;;;;;;;7.20;4.00;;;11.30;97.20;;;;;;1707378;28;20210;-64
2023/03/31 07:32:39;;;;;;;6.05;3.35;;;11.30;97.20;;;;;;1707224;28;20446;-65
2023/03/31 07:33:31;;;;;;;7.25;4.10;;;11.30;97.20;;;;;;1707315;28;20751;-65
2023/03/31 07:34:22;;;;;;;3.95;3.20;;;11.30;97.20;;;;;;1707039;28;20244;-65
2023/03/31 07:35:14;;;;;;;2.90;2.70;;;11.40;97.20;;;;;;1707242;28;20203;-66
2023/03/31 07:36:07;;;;;;;2.88;2.40;;;11.40;97.20;;;;;;1707365;28;20712;-66
2023/03/31 07:36:58;;;;;;;3.80;2.78;;;11.40;97.20;;;;;;1707312;28;20210;-65
2023/03/31 07:37:50;;;;;;;3.30;2.85;;;11.50;97.20;;;;;;1707413;28;20210;-65
2023/03/31 07:38:44;;;;;;;2.95;2.65;;;11.50;97.20;;;;;;1707238;28;20203;-65
2023/03/31 07:39:35;;;;;;;2.67;2.03;;;11.50;97.20;;;;;;1707351;28;20211;-65
2023/03/31 07:40:29;;;;;;;4.75;2.50;;;11.60;97.20;;;;;;1707292;28;20657;-66
2023/03/31 07:41:21;;;;;;;4.03;2.35;;;11.80;97.20;;;;;;1707381;28;20248;-65
2023/03/31 07:42:12;;;;;;;6.28;2.35;;;11.90;97.20;;;;;;1707410;28;20203;-64
2023/03/31 07:43:03;;;;;;;2.30;1.95;;;12.00;97.20;;;;;;1707232;28;20210;-65
2023/03/31 07:43:55;;;;;;;3.60;2.30;;;12.10;97.20;;;;;;1707179;28;20289;-69
2023/03/31 07:44:46;;;;;;;3.38;2.05;;;12.20;97.20;;;;;;1709872;28;20688;-65
2023/03/31 07:45:40;;;;;;;2.70;1.80;;;12.30;97.20;;;;;;1709744;28;20674;-65
2023/03/31 07:46:31;;;;;;;2.05;1.65;;;12.40;97.20;;;;;;1709775;28;20692;-66
2023/03/31 07:47:23;;;;;;;2.20;1.77;;;12.50;97.20;;;;;;1709717;28;20211;-65
2023/03/31 07:48:13;;;;;;;1.40;1.30;;;12.60;97.20;;;;;;1709767;28;20892;-66
2023/03/31 07:49:06;;;;;;;1.70;1.60;;;12.60;97.20;;;;;;1706676;28;20269;-66
2023/03/31 07:49:57;;;;;;;4.40;2.20;;;12.60;97.20;;;;;;1706531;28;20199;-65
2023/03/31 07:50:50;;;;;;;2.83;1.60;;;12.60;97.20;;;;;;1706694;28;20722;-64
2023/03/31 07:51:42;;;;;;;2.00;1.80;;;12.60;97.20;;;;;;1706638;28;20506;-65
2023/03/31 07:52:34;;;;;;;2.00;1.40;;;12.60;97.20;;;;;;1704865;28;20203;-65
2023/03/31 07:53:25;;;;;;;1.95;1.48;;;12.70;97.20;;;;;;1706303;28;20218;-65
2023/03/31 07:54:17;;;;;;;1.70;1.30;;;12.70;97.20;;;;;;1707258;28;20231;-65
2023/03/31 07:55:09;;;;;;;2.00;1.40;;;12.70;97.20;;;;;;1706696;28;20232;-65
2023/03/31 07:56:01;;;;;;;2.97;1.52;;;12.80;97.20;;;;;;1706629;28;20208;-65
2023/03/31 07:56:51;;;;;;;1.77;1.42;;;12.80;97.20;;;;;;1707599;28;20347;-65
2023/03/31 07:57:45;;;;;;;1.13;1.03;;;12.80;97.20;;;;;;1706661;28;20219;-64
2023/03/31 07:58:35;;;;;;;1.92;1.20;;;12.70;97.20;;;;;;1706728;28;20273;-65
2023/03/31 07:59:27;;;;;;;2.30;1.60;;;12.70;97.20;;;;;;1704834;28;20218;-66
2023/03/31 08:00:18;;;;;;;1.65;1.30;;;12.80;97.20;;;;;;1704725;29;20469;-65
2023/03/31 08:01:15;;;;;;;1.30;1.05;;;12.70;97.20;;;;;;1709420;28;20206;-65
2023/03/31 08:02:06;;;;;;;1.30;0.93;;;12.70;97.20;;;;;;1706581;28;20207;-65
2023/03/31 08:02:58;;;;;;;4.17;1.40;;;12.70;97.20;;;;;;1706632;28;20285;-66
2023/03/31 08:03:48;;;;;;;1.17;0.88;;;12.60;97.20;;;;;;1705708;28;20229;-65
2023/03/31 08:04:41;;;;;;;1.20;0.90;;;12.50;97.20;;;;;;1705236;29;20199;-65
2023/03/31 08:05:31;;;;;;;1.13;0.98;;;12.40;97.20;;;;;;1706553;28;20233;-65
2023/03/31 08:06:25;;;;;;;1.43;1.00;;;12.30;97.20;;;;;;1706625;28;20657;-65
2023/03/31 08:07:17;;;;;;;2.92;1.23;;;12.30;97.20;;;;;;1706528;28;20457;-65
2023/03/31 08:08:09;;;;;;;1.35;1.25;;;12.20;97.20;;;;;;1709709;28;20206;-65
2023/03/31 08:08:59;;;;;;;1.30;1.10;;;12.20;97.20;;;;;;1707211;28;20720;-64
2023/03/31 08:09:51;;;;;;;1.67;1.00;;;12.30;97.20;;;;;;1709411;28;20688;-66
2023/03/31 08:10:43;;;;;;;1.15;1.05;;;12.30;97.20;;;;;;1704852;28;20225;-66
2023/03/31 08:11:34;;;;;;;2.17;1.00;;;12.40;97.20;;;;;;1706362;28;20199;-65
2023/03/31 08:12:26;;;;;;;2.03;1.17;;;12.50;97.20;;;;;;1706734;28;20237;-66
2023/03/31 08:13:17;;;;;;;1.63;1.02;;;12.60;97.20;;;;;;1705540;29;20209;-66
2023/03/31 08:14:08;;;;;;;3.60;1.15;;;12.70;97.20;;;;;;1704462;29;20245;-66
2023/03/31 08:15:00;;;;;;;1.10;1.00;;;12.70;97.20;;;;;;1704692;29;20191;-66
2023/03/31 08:15:51;;;;;;;3.28;1.90;;;12.80;97.20;;;;;;1709475;28;20706;-66
2023/03/31 08:16:42;;;;;;;1.30;1.20;;;12.80;97.20;;;;;;1709679;28;20763;-66
2023/03/31 08:17:33;;;;;;;1.30;0.88;;;12.90;97.20;;;;;;1709597;28;20625;-66
2023/03/31 08:18:25;;;;;;;1.20;1.10;;;13.00;97.20;;;;;;1709829;28;20573;-66
2023/03/31 08:19:15;;;;;;;2.88;1.15;;;13.00;97.20;;;;;;1708376;28;20613;-66
2023/03/31 08:20:09;;;;;;;1.17;1.00;;;13.10;97.20;;;;;;1707917;28;20198;-65
2023/03/31 08:20:59;;;;;;;1.77;1.27;;;13.10;97.20;;;;;;1706464;28;20598;-66
2023/03/31 08:21:51;;;;;;;2.13;1.10;;;13.20;97.20;;;;;;1709694;28;20220;-65
2023/03/31 08:22:43;;;;;;;1.27;0.88;;;13.20;97.20;;;;;;1709979;28;20197;-66
2023/03/31 08:23:35;;;;;;;1.95;1.50;;;13.30;97.20;;;;;;1704800;28;20735;-65
2023/03/31 08:24:26;;;;;;;3.22;2.00;;;13.40;97.20;;;;;;1706734;28;20684;-65
2023/03/31 08:25:19;;;;;;;1.33;1.10;;;13.50;97.20;;;;;;1710713;28;20575;-65
2023/03/31 08:26:12;;;;;;;4.60;1.02;;;13.60;97.20;;;;;;1707872;28;20199;-66
2023/03/31 08:27:03;;;;;;;1.75;1.33;;;13.60;97.20;;;;;;1707909;28;20586;-65
2023/03/31 08:27:54;;;;;;;1.00;0.90;;;13.70;97.20;;;;;;1707855;28;20214;-66
2023/03/31 08:28:47;;;;;;;1.70;1.10;;;13.80;97.20;;;;;;1707760;28;21952;-65
2023/03/31 08:29:38;;;;;;;2.40;1.02;;;13.80;97.20;;;;;;1710838;28;20221;-66
2023/03/31 08:30:30;;;;;;;1.93;1.20;;;13.90;97.20;;;;;;1707954;28;20210;-68
2023/03/31 08:31:22;;;;;;;2.75;0.90;;;13.90;97.20;;;;;;1709085;28;20597;-65
2023/03/31 08:32:14;;;;;;;1.38;1.15;;;14.00;97.20;;;;;;1709544;28;20210;-65
2023/03/31 08:33:06;;;;;;;1.45;1.25;;;14.00;97.20;;;;;;1708832;28;20598;-67
2023/03/31 08:33:58;;;;;;;2.65;1.25;;;14.10;97.20;;;;;;1707012;28;20645;-66
2023/03/31 08:34:50;;;;;;;1.40;0.90;;;14.10;97.20;;;;;;1707604;28;20207;-66
2023/03/31 08:35:42;;;;;;;1.60;1.17;;;14.20;97.20;;;;;;1711562;28;20217;-65
2023/03/31 08:36:32;;;;;;;2.20;1.05;;;14.30;97.20;;;;;;1714393;28;20234;-66
2023/03/31 08:37:24;;;;;;;2.10;1.00;;;14.30;97.20;;;;;;1714976;28;20194;-64
2023/03/31 08:38:16;;;;;;;2.17;1.20;;;14.40;97.20;;;;;;1714854;28;20221;-65
2023/03/31 08:39:08;;;;;;;1.20;1.10;;;14.40;97.20;;;;;;1714822;28;20202;-65
2023/03/31 08:39:59;;;;;;;2.33;1.10;;;14.40;97.20;;;;;;1714951;28;20260;-65
2023/03/31 08:40:51;;;;;;;1.73;1.00;;;14.40;97.20;;;;;;1714904;28;20905;-65
2023/03/31 08:41:50;;;;;;;1.20;0.90;;;14.50;97.20;;;;;;1714870;28;20441;-65
2023/03/31 08:42:46;;;;;;;3.30;1.20;;;14.60;97.20;;;;;;1714665;28;20280;-65
2023/03/31 08:43:41;;;;;;;2.55;1.35;;;14.60;97.20;;;;;;1714923;28;20261;-65
2023/03/31 08:44:38;;;;;;;3.47;1.40;;;14.70;97.20;;;;;;1714434;28;20726;-65
2023/03/31 08:45:31;;;;;;;1.80;1.02;;;14.80;97.20;;;;;;1714772;28;20296;-66
2023/03/31 08:46:24;;;;;;;2.70;1.20;;;14.90;97.20;;;;;;1711107;28;20210;-65
2023/03/31 08:47:19;;;;;;;1.58;0.90;;;14.90;97.20;;;;;;1707692;28;20206;-66
2023/03/31 08:48:24;;;;;;;2.33;1.10;;;15.00;97.20;;;;;;1707710;28;20225;-66
2023/03/31 08:49:18;;;;;;;1.88;1.20;;;15.10;97.20;;;;;;1707716;28;20233;-65
2023/03/31 08:50:14;;;;;;;1.23;1.10;;;15.20;97.20;;;;;;1707773;28;20210;-66
2023/03/31 08:51:11;;;;;;;1.70;1.23;;;15.30;97.20;;;;;;1709681;28;20219;-65
2023/03/31 08:52:06;;;;;;;1.67;0.98;;;15.40;97.20;;;;;;1707748;28;20214;-65
2023/03/31 08:53:04;;;;;;;2.17;1.20;;;15.60;97.20;;;;;;1710502;28;20925;-64
2023/03/31 08:54:02;;;;;;;5.38;1.40;;;15.70;97.20;;;;;;1707740;28;20553;-67
2023/03/31 08:54:58;;;;;;;2.83;1.55;;;15.80;97.20;;;;;;1707582;28;20206;-66
2023/03/31 08:55:51;;;;;;;1.10;0.90;;;15.90;97.20;;;;;;1707510;28;20673;-66
2023/03/31 08:56:47;;;;;;;2.50;1.35;;;15.90;97.20;;;;;;1708860;28;20606;-65
2023/03/31 08:57:52;;;;;;;2.65;1.45;;;15.90;97.20;;;;;;1707905;28;20203;-65
2023/03/31 08:58:45;;;;;;;1.45;0.95;;;15.90;97.20;;;;;;1708168;28;20245;-66
2023/03/31 08:59:39;;;;;;;3.58;1.42;;;16.00;97.20;;;;;;1708082;28;20269;-64
2023/03/31 09:00:40;;;;;;;2.60;1.13;;;16.10;97.20;;;;;;1708055;28;20716;-65
2023/03/31 09:01:41;;;;;;;1.77;1.10;;;16.30;97.20;;;;;;1708059;28;20257;-67
2023/03/31 09:02:42;;;;;;;3.20;1.15;;;16.40;97.20;;;;;;1708127;28;20206;-65
2023/03/31 09:03:43;;;;;;;4.03;1.23;;;16.60;97.20;;;;;;1708115;28;20206;-65
2023/03/31 09:05:06;;;;;;;3.47;1.10;;;16.70;97.20;;;;;;1707811;28;20542;-64
2023/03/31 09:06:02;;;;;;;1.55;1.10;;;17.00;97.20;;;;;;1714291;28;20206;-66
2023/03/31 09:07:03;;;;;;;1.80;1.30;;;17.20;97.20;;;;;;1714847;28;20205;-65
2023/03/31 09:08:04;;;;;;;2.03;1.20;;;17.40;97.20;;;;;;1714700;28;20664;-63
2023/03/31 09:09:02;;;;;;;4.82;1.10;;;17.50;97.20;;;;;;1714624;28;20225;-64
2023/03/31 09:10:08;;;;;;;1.65;1.00;;;17.60;97.20;;;;;;1714756;28;20201;-66
2023/03/31 09:11:10;;;;;;;2.63;1.20;;;17.60;97.20;;;;;;1711838;28;20229;-63
2023/03/31 09:12:06;;;;;;;2.72;1.00;;;17.70;97.20;;;;;;1710586;28;20201;-68
2023/03/31 09:13:05;;;;;;;2.40;1.20;;;17.80;97.20;;;;;;1707449;28;20213;-69
2023/03/31 09:14:20;;;;;;;5.05;1.27;;;17.80;97.20;;;;;;1707708;28;20202;-68
2023/03/31 09:15:32;;;;;;;1.70;1.00;;;17.90;97.20;;;;;;1707499;28;20201;-67
2023/03/31 09:16:26;;;;;;;3.60;1.38;;;18.00;97.20;;;;;;1709084;28;20195;-66
2023/03/31 09:17:24;;;;;;;3.20;1.00;;;17.90;97.20;;;;;;1707969;28;20213;-66
2023/03/31 09:18:24;;;;;;;3.65;1.10;;;17.80;97.20;;;;;;1708069;28;20211;-66
2023/03/31 09:19:22;;;;;;;2.63;1.10;;;17.70;97.20;;;;;;1707998;28;20661;-66
2023/03/31 09:20:18;;;;;;;2.88;1.30;;;17.60;97.20;;;;;;1708010;28;20206;-66
2023/03/31 09:21:15;;;;;;;3.80;1.27;;;17.40;97.20;;;;;;1708051;28;20700;-68
2023/03/31 09:22:14;;;;;;;1.45;1.10;;;17.20;97.20;;;;;;1708133;28;20202;-66
2023/03/31 09:23:17;;;;;;;2.22;1.35;;;17.20;97.20;;;;;;1707803;28;20191;-66
2023/03/31 09:24:15;;;;;;;3.47;1.13;;;17.20;97.20;;;;;;1707584;28;20191;-68
2023/03/31 09:25:11;;;;;;;2.33;1.30;;;17.40;97.20;;;;;;1708031;28;20217;-67
2023/03/31 09:26:03;;;;;;;1.20;0.80;;;17.60;97.20;;;;;;1714628;28;20216;-68
2023/03/31 09:26:57;;;;;;;4.05;1.30;;;17.80;97.20;;;;;;1710578;28;20590;-66
2023/03/31 09:27:50;;;;;;;2.67;1.50;;;18.00;97.20;;;;;;1712790;28;20197;-68
2023/03/31 09:28:42;;;;;;;3.08;1.20;;;18.00;97.20;;;;;;1710460;28;20198;-68
2023/03/31 09:29:42;;;;;;;2.90;1.20;;;18.10;97.20;;;;;;1710770;28;20677;-67
2023/03/31 09:30:35;;;;;;;2.85;1.10;;;18.20;97.20;;;;;;1711988;28;20221;-67
2023/03/31 09:31:28;;;;;;;1.60;1.20;;;18.20;97.20;;;;;;1714643;28;20205;-68
2023/03/31 09:32:21;;;;;;;2.35;0.82;;;18.30;97.20;;;;;;1714539;28;20229;-68
2023/03/31 09:33:17;;;;;;;2.00;1.20;;;18.20;97.20;;;;;;1711897;28;20197;-69
2023/03/31 09:34:13;;;;;;;3.35;1.17;;;18.00;97.20;;;;;;1707148;28;20217;-68
2023/03/31 09:35:17;;;;;;;1.92;1.00;;;17.80;97.20;;;;;;1710505;28;21739;-70